Gray Army Air Field
KGRF : now visible

Airfield :











YOU CAN JOIN US ON...

 
LOGIN :

Register | Disclaimer

   EN    FR    IT 

 









Legend :    VFR   Marginal VFR   IFR   Intensive IFR   Very Intensive IFR
Visi :
Ceiling :
>= 8 km
>= 3000ft
5 to 8 km
1000 to 3000 ft
1500m to 5 km
500 to 1000 ft
800 to 1500m
200 to 500 ft
< 800m
< 200 ft
Symbols :   Thunderstorms  Fog  Heavy snow  Heavy precipitations  Wind > 20 kt






- Airport Elevation : 300 ft


KGRF - Gray Army Air Field

CURRENT METAR :
  • 080801Z 12007KT 10SM FEW031 BKN047 05/03 A2994 RMK AO2A RAE01 SLP144 $

EXPIRED METARs :
  • 080655Z 14009KT 10SM -RA FEW021 FEW028 BKN048 05/02 A2996 RMK AO2A RAB50 SLP151 P0000 T00490016 $
  • 080555Z 00000KT 10SM OVC050 04/02 A2998 RMK AO2A SLP158 T00410023 10060 20039 57013 $

TAF TAF KGRF
Valid from the 08 at 05:00 until the 09 at 11:00 UTC


080500Z 0805/0911 18009KT 9999 BKN032 OVC040 650349 520005 QNH2994INS
BECMG 0807/0808 18013G23KT 8000 -RA SCT015 BKN025 OVC035 650369 530006 QNH2990INS
TEMPO 0809/0811 19015G32KT
BECMG 0811/0812 19011G18KT 8000 -RA SCT015 BKN025 OVC035 650319 530004 QNH2990INS
BECMG 0812/0813 18010KT 9999 NSW BKN020 OVC035 620309 510002 QNH2992INS
BECMG 0815/0816 19006KT 9999 SCT025 SCT035 QNH2989INS
BECMG 0900/0901 21005KT 9999 -RA SCT010 BKN015 OVC028 620229 QNH2988INS TX06/0807Z TN04/0904Z
KZSE FIR / North America



MET'MAP, your aeronautical weather chart ! - Copyright ORBIFLY December 2007 - Disclaimer

ORBIFLY MET'MAP TEAM :

Programming & Development : Alexandra Zaïnal
Original concept : Baudouin d'Aumeries
Technical & hardware support : Manuel Goepfert
Assistance : Marc-Olivier Méhu




SOURCES & CREDITS :

   NOAA       Earth
Advisory